Time;durP1;ratioP1;P1;durP2;ratioP2;P2;SDS_P1;SDS_P2;PMS_P1;PMS_P2;Temp;Humidity;BMP_temperature;BMP_pressure;BME280_temperature;BME280_humidity;BME280_pressure;Samples;Min_cycle;Max_cycle;Signal;HPM_P1;HPM_P2
2023/01/03 00:00:21;;;;;;;9.98;7.88;;;11.30;99.90;;;;;;5101862;28;20039;-80
2023/01/03 00:02:48;;;;;;;11.65;7.15;;;11.30;99.90;;;;;;5086330;28;20048;-79
2023/01/03 00:05:16;;;;;;;11.88;7.68;;;11.20;99.90;;;;;;5085975;28;20122;-79
2023/01/03 00:07:43;;;;;;;12.13;7.72;;;11.20;99.90;;;;;;5087355;28;20063;-80
2023/01/03 00:10:11;;;;;;;8.75;6.90;;;11.20;99.90;;;;;;5087201;28;20060;-78
2023/01/03 00:12:39;;;;;;;9.45;6.88;;;11.20;99.90;;;;;;5087659;28;20091;-80
2023/01/03 00:15:07;;;;;;;12.00;8.10;;;11.10;99.90;;;;;;5087367;28;20187;-79
2023/01/03 00:17:34;;;;;;;11.07;6.93;;;11.10;99.90;;;;;;5088463;28;20036;-79
2023/01/03 00:20:02;;;;;;;11.45;6.82;;;11.10;99.90;;;;;;5086909;28;20086;-80
2023/01/03 00:22:30;;;;;;;16.17;8.25;;;11.00;99.90;;;;;;5088115;28;20035;-79
2023/01/03 00:24:58;;;;;;;22.38;10.32;;;10.90;99.90;;;;;;5088513;28;20040;-79
2023/01/03 00:27:27;;;;;;;56.92;13.43;;;10.80;99.90;;;;;;5087309;28;20036;-79
2023/01/03 00:29:55;;;;;;;35.00;10.30;;;10.80;99.90;;;;;;5087799;28;20069;-79
2023/01/03 00:32:23;;;;;;;43.70;11.13;;;10.70;99.90;;;;;;5088984;28;20055;-79
2023/01/03 00:34:50;;;;;;;33.00;9.40;;;10.70;99.90;;;;;;5079158;28;20049;-79
2023/01/03 00:37:18;;;;;;;57.75;9.85;;;10.50;99.90;;;;;;5075286;28;20040;-81
2023/01/03 00:39:45;;;;;;;54.60;10.05;;;10.30;99.90;;;;;;5083276;28;20063;-79
2023/01/03 00:42:13;;;;;;;68.03;9.88;;;10.20;99.90;;;;;;5067111;28;20064;-80
2023/01/03 00:44:40;;;;;;;55.22;9.85;;;10.10;99.90;;;;;;5082145;28;20048;-79
2023/01/03 00:47:08;;;;;;;138.25;13.95;;;10.10;99.90;;;;;;5091121;28;20124;-80
2023/01/03 00:49:37;;;;;;;91.53;12.70;;;10.00;99.90;;;;;;5093017;28;20055;-79
2023/01/03 00:52:05;;;;;;;62.40;9.98;;;10.00;99.90;;;;;;5092076;28;20404;-79
2023/01/03 00:54:32;;;;;;;58.95;9.50;;;9.90;99.90;;;;;;5090862;28;20069;-80
2023/01/03 00:57:00;;;;;;;46.40;9.52;;;9.80;99.90;;;;;;5082331;28;20048;-79
2023/01/03 00:59:27;;;;;;;31.65;8.70;;;9.80;99.90;;;;;;5073441;28;20040;-79
2023/01/03 01:01:56;;;;;;;26.88;7.50;;;9.90;99.90;;;;;;5079373;28;20134;-81
2023/01/03 01:04:29;;;;;;;39.83;7.68;;;9.90;99.90;;;;;;5083334;28;20071;-80
2023/01/03 01:07:02;;;;;;;32.63;6.78;;;9.80;99.90;;;;;;5083129;28;20151;-79
2023/01/03 01:09:32;;;;;;;21.05;6.90;;;9.80;99.90;;;;;;5081344;28;20048;-77
2023/01/03 01:12:00;;;;;;;19.90;5.95;;;9.80;99.90;;;;;;5062759;28;20096;-81
2023/01/03 01:14:32;;;;;;;33.88;7.53;;;9.80;99.90;;;;;;5097161;28;20075;-80
2023/01/03 01:17:05;;;;;;;46.63;6.97;;;9.70;99.90;;;;;;5089419;28;20465;-83
2023/01/03 01:19:35;;;;;;;24.13;6.82;;;9.70;99.90;;;;;;5096110;28;20161;-81
2023/01/03 01:22:03;;;;;;;37.22;7.28;;;9.70;99.90;;;;;;5102843;28;20494;-80
2023/01/03 01:24:31;;;;;;;29.15;6.97;;;9.60;99.90;;;;;;5090540;28;20101;-80
2023/01/03 01:26:59;;;;;;;14.23;5.72;;;9.70;99.90;;;;;;5097020;28;20040;-80
2023/01/03 01:29:27;;;;;;;7.47;5.40;;;9.90;99.90;;;;;;5079123;28;20099;-80
2023/01/03 01:31:54;;;;;;;8.32;5.78;;;10.00;99.90;;;;;;5091957;28;20071;-80
2023/01/03 01:34:22;;;;;;;9.73;5.95;;;10.10;99.90;;;;;;5101785;28;20086;-80
2023/01/03 01:36:50;;;;;;;37.90;7.32;;;10.20;99.90;;;;;;5095746;28;20042;-79
2023/01/03 01:39:20;;;;;;;20.20;5.78;;;10.30;99.90;;;;;;5085804;28;20130;-81
2023/01/03 01:45:04;;;;;;;35.55;5.93;;;10.30;99.90;;;;;;5084629;28;20123;-79
2023/01/03 01:47:35;;;;;;;26.52;5.72;;;10.20;99.90;;;;;;5071794;28;20561;-80
2023/01/03 01:50:23;;;;;;;73.75;8.65;;;10.20;99.90;;;;;;5071430;28;20040;-80
2023/01/03 01:52:59;;;;;;;81.85;9.98;;;10.20;99.90;;;;;;5069936;28;20048;-80
2023/01/03 01:55:31;;;;;;;63.30;8.67;;;10.20;99.90;;;;;;5086322;28;20098;-80
2023/01/03 01:58:00;;;;;;;39.13;7.60;;;10.10;99.90;;;;;;5090110;28;20305;-79
2023/01/03 02:00:28;;;;;;;29.35;6.57;;;10.10;99.90;;;;;;5082645;28;20051;-80
2023/01/03 02:02:56;;;;;;;16.20;6.10;;;10.00;99.90;;;;;;5073012;28;20063;-79
2023/01/03 02:05:24;;;;;;;9.43;5.10;;;9.90;99.90;;;;;;5086430;28;20121;-79
2023/01/03 02:07:53;;;;;;;7.53;3.58;;;10.00;99.90;;;;;;5070288;28;20040;-80
2023/01/03 02:10:44;;;;;;;7.88;3.90;;;10.00;99.90;;;;;;5079558;28;20043;-79
2023/01/03 02:13:29;;;;;;;8.98;3.90;;;10.10;99.90;;;;;;5036161;28;20086;-79
2023/01/03 02:16:25;;;;;;;7.22;4.00;;;10.00;99.90;;;;;;5083045;28;20434;-79
2023/01/03 02:18:58;;;;;;;17.98;4.53;;;10.00;99.90;;;;;;5073155;28;20075;-79
2023/01/03 02:22:06;;;;;;;21.25;4.75;;;9.90;99.90;;;;;;5053018;28;20494;-79
2023/01/03 02:25:19;;;;;;;12.90;4.53;;;9.80;99.90;;;;;;5059082;28;20048;-80
2023/01/03 02:27:58;;;;;;;3.83;3.35;;;9.90;99.90;;;;;;5073410;28;20513;-80
2023/01/03 02:30:26;;;;;;;16.30;5.32;;;9.90;99.90;;;;;;5080092;28;20066;-79
2023/01/03 02:33:20;;;;;;;5.40;3.67;;;10.00;99.90;;;;;;5079478;28;20048;-80
2023/01/03 02:35:59;;;;;;;3.85;3.10;;;10.10;99.90;;;;;;5061682;28;20068;-80
2023/01/03 02:39:08;;;;;;;6.40;4.15;;;10.10;99.90;;;;;;5077445;28;20048;-79
2023/01/03 02:41:45;;;;;;;10.77;5.80;;;10.20;99.90;;;;;;4971813;28;20050;-79
2023/01/03 02:44:28;;;;;;;11.07;6.20;;;10.20;99.90;;;;;;5007590;28;20096;-79
2023/01/03 02:47:02;;;;;;;28.83;8.38;;;10.20;99.90;;;;;;5049094;28;20051;-79
2023/01/03 02:49:41;;;;;;;10.30;7.13;;;10.10;99.90;;;;;;5067938;28;20047;-80
2023/01/03 02:52:25;;;;;;;9.13;6.30;;;10.10;99.90;;;;;;5071722;28;20051;-79
2023/01/03 02:55:07;;;;;;;13.30;7.32;;;10.10;99.90;;;;;;5080653;28;20036;-80
2023/01/03 02:58:15;;;;;;;9.18;6.15;;;10.20;99.90;;;;;;5088677;28;20051;-79
2023/01/03 03:00:47;;;;;;;;;;;10.20;99.90;;;;;;5089159;28;20386;-80
2023/01/03 03:03:19;;;;;;;10.98;5.88;;;10.30;99.90;;;;;;5090068;28;20358;-80
2023/01/03 03:06:25;;;;;;;29.15;8.50;;;10.30;99.90;;;;;;5081469;28;20489;-79
2023/01/03 03:08:52;;;;;;;25.88;7.68;;;10.30;99.90;;;;;;5072944;28;20137;-80
2023/01/03 03:14:29;;;;;;;12.13;7.22;;;10.20;99.90;;;;;;5072849;28;20831;-79
2023/01/03 03:17:03;;;;;;;15.10;6.85;;;10.30;99.90;;;;;;5088127;28;20074;-80
2023/01/03 03:25:40;;;;;;;10.68;7.10;;;10.20;99.90;;;;;;5088088;28;20102;-80
2023/01/03 03:31:16;;;;;;;12.48;7.85;;;10.40;99.90;;;;;;5074072;28;20052;-79
2023/01/03 03:34:01;;;;;;;11.50;6.65;;;10.50;99.90;;;;;;5069326;28;20052;-79
2023/01/03 03:36:37;;;;;;;8.18;6.18;;;10.60;99.90;;;;;;5071718;28;20069;-79
2023/01/03 03:44:58;;;;;;;10.85;7.35;;;10.70;99.90;;;;;;5088294;28;20134;-79
2023/01/03 03:44:59;;;;;;;8.85;6.70;;;10.80;99.90;;;;;;5083054;28;20040;-80
2023/01/03 03:47:42;;;;;;;9.18;7.70;;;10.80;99.90;;;;;;5089238;28;20040;-79
2023/01/03 03:50:28;;;;;;;11.75;8.20;;;10.80;99.90;;;;;;5079267;28;20051;-79
2023/01/03 03:53:01;;;;;;;10.27;7.75;;;10.80;99.90;;;;;;5069068;28;20040;-79
2023/01/03 03:55:31;;;;;;;12.68;7.97;;;10.90;99.90;;;;;;5082684;28;20453;-80
2023/01/03 03:58:03;;;;;;;14.18;8.52;;;10.90;99.90;;;;;;5089048;28;20044;-79
2023/01/03 04:00:37;;;;;;;13.25;8.77;;;10.90;99.90;;;;;;5082558;28;20055;-80
2023/01/03 04:03:06;;;;;;;15.43;10.38;;;11.00;99.90;;;;;;5073551;28;20045;-80
2023/01/03 04:05:39;;;;;;;19.65;12.95;;;11.00;99.90;;;;;;5087870;28;20127;-79
2023/01/03 04:08:07;;;;;;;16.58;11.68;;;11.00;99.90;;;;;;5088952;28;20346;-79
2023/01/03 04:10:36;;;;;;;18.88;12.55;;;11.00;99.90;;;;;;5088020;28;20040;-79
2023/01/03 04:13:04;;;;;;;19.27;13.10;;;11.10;99.90;;;;;;5086218;28;20052;-79
2023/01/03 04:15:32;;;;;;;20.02;13.07;;;11.10;99.90;;;;;;5060616;28;20557;-80
2023/01/03 04:18:02;;;;;;;20.00;13.65;;;11.10;99.90;;;;;;5082216;28;20442;-79
2023/01/03 04:20:30;;;;;;;19.00;13.98;;;11.10;99.90;;;;;;5088741;28;20044;-80
2023/01/03 04:22:58;;;;;;;25.30;16.15;;;11.20;99.90;;;;;;5087263;28;20573;-80
2023/01/03 04:25:27;;;;;;;32.55;15.88;;;11.20;99.90;;;;;;5086496;28;20090;-79
2023/01/03 04:27:56;;;;;;;22.70;15.52;;;11.20;99.90;;;;;;5076472;28;20055;-80
2023/01/03 04:30:23;;;;;;;22.58;15.15;;;11.30;99.90;;;;;;5053074;28;20493;-79
2023/01/03 04:32:51;;;;;;;19.00;13.40;;;11.30;99.90;;;;;;5078238;28;20692;-79
2023/01/03 04:35:18;;;;;;;26.52;16.05;;;11.30;99.90;;;;;;5079708;28;20068;-79
2023/01/03 04:37:45;;;;;;;19.10;13.23;;;11.30;99.90;;;;;;5071249;28;20395;-79
2023/01/03 04:40:13;;;;;;;22.75;15.43;;;11.30;99.90;;;;;;5079163;28;20044;-79
2023/01/03 04:45:26;;;;;;;18.73;13.10;;;11.40;99.90;;;;;;5079776;28;20127;-79
2023/01/03 04:47:53;;;;;;;20.30;13.93;;;11.40;99.90;;;;;;5078249;28;20040;-79
2023/01/03 04:50:21;;;;;;;19.05;11.85;;;11.40;99.90;;;;;;5067545;28;20055;-79
2023/01/03 04:52:48;;;;;;;19.05;12.45;;;11.40;99.90;;;;;;5068426;28;20158;-79
2023/01/03 04:55:16;;;;;;;15.90;10.52;;;11.40;99.90;;;;;;5080017;28;20094;-80
2023/01/03 04:57:43;;;;;;;18.17;12.00;;;11.30;99.90;;;;;;5081742;28;20169;-79
2023/01/03 05:00:11;;;;;;;15.65;11.40;;;11.10;99.90;;;;;;5073107;28;20060;-80
2023/01/03 05:02:39;;;;;;;18.98;13.25;;;11.10;99.90;;;;;;5068360;28;20079;-79
2023/01/03 05:05:06;;;;;;;18.95;14.60;;;11.10;99.90;;;;;;5075390;28;20040;-80
2023/01/03 05:07:34;;;;;;;42.33;32.50;;;11.10;99.90;;;;;;5076067;28;20654;-79
2023/01/03 05:10:02;;;;;;;40.63;31.95;;;11.10;99.90;;;;;;5069473;28;20090;-80
2023/01/03 05:12:29;;;;;;;135.10;91.07;;;11.00;99.90;;;;;;5065664;28;20056;-79
2023/01/03 05:14:57;;;;;;;94.78;71.00;;;10.90;99.90;;;;;;5087142;28;20063;-79
2023/01/03 05:17:24;;;;;;;81.72;56.03;;;10.90;99.90;;;;;;5086999;28;20112;-79
2023/01/03 05:28:09;;;;;;;61.08;48.25;;;10.80;99.90;;;;;;5078760;28;20040;-79
2023/01/03 05:30:41;;;;;;;51.13;43.42;;;10.80;99.90;;;;;;5079397;28;20127;-80
2023/01/03 05:33:08;;;;;;;42.55;30.25;;;10.70;99.90;;;;;;5076173;28;20507;-79
2023/01/03 05:35:37;;;;;;;32.38;24.45;;;10.80;99.90;;;;;;5090222;28;20047;-80
2023/01/03 05:38:04;;;;;;;24.77;16.17;;;10.90;99.90;;;;;;5087719;28;20520;-79
2023/01/03 05:40:32;;;;;;;22.42;16.73;;;10.90;99.90;;;;;;5079162;28;20466;-80
2023/01/03 05:43:02;;;;;;;36.42;22.77;;;10.90;99.90;;;;;;5073993;28;20518;-80
2023/01/03 05:45:30;;;;;;;32.28;19.13;;;10.90;99.90;;;;;;5089506;28;20131;-80
2023/01/03 05:47:57;;;;;;;26.02;16.75;;;10.90;99.90;;;;;;5091681;28;20445;-77
2023/01/03 05:50:25;;;;;;;25.08;15.52;;;11.00;99.90;;;;;;5090135;28;20470;-80
2023/01/03 05:52:52;;;;;;;19.98;13.73;;;11.00;99.90;;;;;;5081308;28;20491;-80
2023/01/03 05:55:20;;;;;;;17.15;12.40;;;11.00;99.90;;;;;;5086221;28;20047;-79
2023/01/03 05:57:47;;;;;;;22.52;13.88;;;11.10;99.90;;;;;;5089550;28;20045;-80
2023/01/03 06:00:15;;;;;;;24.52;15.52;;;11.10;99.90;;;;;;5082838;28;20124;-80
2023/01/03 06:02:42;;;;;;;18.95;14.20;;;11.20;99.90;;;;;;5069444;28;20060;-79
2023/01/03 06:05:10;;;;;;;20.55;14.70;;;11.20;99.90;;;;;;5080845;28;20493;-79
2023/01/03 06:07:37;;;;;;;20.77;12.25;;;11.20;99.90;;;;;;5090743;28;20048;-80
2023/01/03 06:10:06;;;;;;;17.35;12.27;;;11.20;99.90;;;;;;5070342;28;20139;-79
2023/01/03 06:12:33;;;;;;;20.75;12.95;;;11.30;99.90;;;;;;5069742;28;20071;-80
2023/01/03 06:15:01;;;;;;;21.55;14.32;;;11.20;99.90;;;;;;5079164;28;20457;-80
2023/01/03 06:20:14;;;;;;;16.85;12.45;;;11.20;99.90;;;;;;5084441;28;20661;-80
2023/01/03 06:22:42;;;;;;;16.08;11.90;;;11.30;99.90;;;;;;5075242;28;20065;-79
2023/01/03 06:25:10;;;;;;;18.73;11.80;;;11.30;99.90;;;;;;5078172;28;20040;-80
2023/01/03 06:27:37;;;;;;;15.82;11.02;;;11.30;99.90;;;;;;5069679;28;20048;-79
2023/01/03 06:30:05;;;;;;;21.45;11.05;;;11.30;99.90;;;;;;5069379;28;20045;-78
2023/01/03 06:32:33;;;;;;;19.73;13.15;;;11.30;99.90;;;;;;5073042;28;20052;-79
2023/01/03 06:35:00;;;;;;;18.80;11.95;;;11.40;99.90;;;;;;5082697;28;20448;-78
2023/01/03 06:37:28;;;;;;;17.20;12.45;;;11.40;99.90;;;;;;5095131;28;20707;-82
2023/01/03 06:39:55;;;;;;;17.15;11.95;;;11.40;99.90;;;;;;5085365;28;20501;-81
2023/01/03 06:42:38;;;;;;;19.30;12.90;;;11.40;99.90;;;;;;5082988;28;20112;-80
2023/01/03 06:53:32;;;;;;;20.92;13.73;;;11.50;99.90;;;;;;5077036;28;20126;-79
2023/01/03 06:56:00;;;;;;;18.10;12.25;;;11.50;99.90;;;;;;5081296;28;20097;-80
2023/01/03 06:58:27;;;;;;;20.40;14.63;;;11.50;99.90;;;;;;5083768;28;20036;-81
2023/01/03 07:00:57;;;;;;;27.58;14.77;;;11.60;99.90;;;;;;5085614;28;20052;-80
2023/01/03 07:03:24;;;;;;;22.05;14.50;;;11.60;99.90;;;;;;5089741;28;20482;-80
2023/01/03 07:05:52;;;;;;;22.75;15.05;;;11.60;99.90;;;;;;5089838;28;20097;-79
2023/01/03 07:08:19;;;;;;;19.80;13.65;;;11.60;99.90;;;;;;5088438;28;20514;-79
2023/01/03 07:10:47;;;;;;;20.30;13.55;;;11.60;99.90;;;;;;5088777;28;20048;-81
2023/01/03 07:16:01;;;;;;;17.35;12.88;;;11.60;99.90;;;;;;5085663;28;20414;-81
2023/01/03 07:18:28;;;;;;;20.65;13.02;;;11.60;99.90;;;;;;5089735;28;20125;-79
2023/01/03 07:20:55;;;;;;;23.05;14.63;;;11.70;99.90;;;;;;5088284;28;20468;-79
2023/01/03 07:23:23;;;;;;;20.88;14.10;;;11.70;99.90;;;;;;5088485;28;20401;-80
2023/01/03 07:25:54;;;;;;;21.00;13.98;;;11.70;99.90;;;;;;5089843;28;20093;-79
2023/01/03 07:28:22;;;;;;;21.58;14.10;;;11.80;99.90;;;;;;5080052;28;20047;-78
2023/01/03 07:30:50;;;;;;;17.05;13.57;;;11.70;99.90;;;;;;5079185;28;20056;-78
2023/01/03 07:33:18;;;;;;;19.55;13.65;;;11.80;99.90;;;;;;5077801;28;20051;-79
2023/01/03 07:35:45;;;;;;;22.58;15.52;;;11.70;99.90;;;;;;5088185;28;20082;-78
2023/01/03 07:38:13;;;;;;;18.60;13.93;;;11.80;99.90;;;;;;5077230;28;20082;-79
2023/01/03 07:40:41;;;;;;;23.20;14.75;;;11.80;99.90;;;;;;5051390;28;20351;-79
2023/01/03 07:45:57;;;;;;;22.58;14.85;;;11.80;99.90;;;;;;5087841;28;20062;-79
2023/01/03 07:48:24;;;;;;;24.70;14.80;;;11.90;99.90;;;;;;5089467;28;20075;-79
2023/01/03 07:50:56;;;;;;;19.80;12.65;;;11.90;99.90;;;;;;5089186;28;20040;-78
2023/01/03 07:53:24;;;;;;;22.60;16.20;;;11.90;99.90;;;;;;5086973;28;20078;-79
2023/01/03 07:55:52;;;;;;;22.65;15.93;;;12.00;99.90;;;;;;5087990;28;20052;-78
2023/01/03 07:58:19;;;;;;;25.98;16.08;;;12.00;99.90;;;;;;5089549;28;20494;-78
2023/01/03 08:00:47;;;;;;;22.92;16.45;;;12.00;99.90;;;;;;5087968;28;20105;-80
2023/01/03 08:03:14;;;;;;;25.70;16.58;;;12.10;99.90;;;;;;5089887;28;20066;-80
2023/01/03 08:05:42;;;;;;;21.65;15.27;;;12.10;99.90;;;;;;5088004;28;20543;-78
2023/01/03 08:08:09;;;;;;;20.98;14.27;;;12.10;99.90;;;;;;5077139;28;20127;-79
2023/01/03 08:13:24;;;;;;;21.38;16.35;;;12.20;99.90;;;;;;5069447;28;20048;-80
2023/01/03 08:15:55;;;;;;;22.83;17.33;;;12.20;99.90;;;;;;5080832;28;20585;-80
2023/01/03 08:18:25;;;;;;;23.02;16.77;;;12.30;99.90;;;;;;5075950;28;20056;-78
2023/01/03 08:20:55;;;;;;;21.67;14.98;;;12.40;99.90;;;;;;5072387;28;20033;-79
2023/01/03 08:23:24;;;;;;;26.38;15.55;;;12.40;99.90;;;;;;5076300;28;20045;-78
2023/01/03 08:26:03;;;;;;;19.55;14.35;;;12.50;99.90;;;;;;5074965;28;20105;-79
2023/01/03 08:28:31;;;;;;;23.33;16.05;;;12.50;99.90;;;;;;5069338;28;20072;-80
2023/01/03 08:31:02;;;;;;;25.50;16.50;;;12.60;99.90;;;;;;5075119;28;20443;-80
2023/01/03 08:33:34;;;;;;;23.83;17.15;;;12.60;99.90;;;;;;5074600;28;20055;-79
2023/01/03 08:36:06;;;;;;;24.67;18.27;;;12.80;99.90;;;;;;5086497;28;20135;-79
2023/01/03 08:38:56;;;;;;;26.80;17.02;;;12.80;99.90;;;;;;5071049;28;20123;-79
2023/01/03 08:41:29;;;;;;;22.00;15.57;;;12.80;99.90;;;;;;5073112;28;20047;-79
2023/01/03 08:44:01;;;;;;;27.10;18.38;;;12.90;99.90;;;;;;5088760;28;20051;-78
2023/01/03 08:46:31;;;;;;;25.58;16.73;;;13.00;99.90;;;;;;5070478;28;20040;-79
2023/01/03 08:49:00;;;;;;;25.92;18.40;;;13.10;99.90;;;;;;5076824;28;20047;-79
2023/01/03 08:51:28;;;;;;;32.28;20.80;;;13.10;99.90;;;;;;5067162;28;20094;-79
2023/01/03 08:53:56;;;;;;;32.08;22.33;;;13.20;99.90;;;;;;5067243;28;20052;-79
2023/01/03 08:56:23;;;;;;;30.92;19.98;;;13.30;99.90;;;;;;5084856;28;20074;-81
2023/01/03 08:58:51;;;;;;;26.33;18.58;;;13.40;99.90;;;;;;5088562;28;20047;-81
2023/01/03 09:01:19;;;;;;;36.17;20.67;;;13.70;99.90;;;;;;5081143;28;20113;-79
2023/01/03 09:03:47;;;;;;;30.45;19.50;;;14.10;99.90;;;;;;5069832;28;20067;-79
2023/01/03 09:06:14;;;;;;;33.72;19.35;;;14.50;99.90;;;;;;5087915;28;20063;-80
2023/01/03 09:08:42;;;;;;;29.05;18.15;;;14.80;99.90;;;;;;5092479;28;20530;-79
2023/01/03 09:11:10;;;;;;;24.75;17.73;;;15.10;99.90;;;;;;5085601;28;20044;-79
2023/01/03 09:13:37;;;;;;;25.65;16.83;;;15.30;99.90;;;;;;5071494;28;20789;-78
2023/01/03 09:16:08;;;;;;;24.23;16.63;;;15.60;99.90;;;;;;5080329;28;20048;-78
2023/01/03 09:18:36;;;;;;;26.30;17.23;;;15.90;99.90;;;;;;5079426;28;20066;-78
2023/01/03 09:21:04;;;;;;;25.38;15.73;;;16.00;99.90;;;;;;5072980;28;20071;-79
2023/01/03 09:23:33;;;;;;;27.70;17.08;;;16.30;99.90;;;;;;5091872;28;20382;-80
2023/01/03 09:26:01;;;;;;;23.52;15.25;;;16.50;99.90;;;;;;5091965;28;20155;-79
2023/01/03 09:28:29;;;;;;;25.85;15.63;;;16.90;99.90;;;;;;5092038;28;20101;-79
2023/01/03 09:30:56;;;;;;;25.73;14.90;;;17.00;99.90;;;;;;5057123;28;20055;-79
2023/01/03 09:33:24;;;;;;;20.00;14.77;;;17.30;99.90;;;;;;5091946;28;20436;-79
2023/01/03 09:35:53;;;;;;;25.15;14.23;;;17.50;99.90;;;;;;5091481;28;20048;-79
2023/01/03 09:38:22;;;;;;;19.85;14.02;;;17.70;99.90;;;;;;5090158;28;20040;-79
2023/01/03 09:41:18;;;;;;;23.73;14.57;;;18.00;99.90;;;;;;5090455;28;20391;-79
2023/01/03 09:43:48;;;;;;;22.90;14.90;;;18.20;99.90;;;;;;5091435;28;20735;-77
2023/01/03 09:46:21;;;;;;;24.13;16.42;;;18.30;99.90;;;;;;5082110;28;20041;-73
2023/01/03 09:48:50;;;;;;;21.35;15.65;;;18.40;99.90;;;;;;5078153;28;20102;-73
2023/01/03 10:03:45;;;;;;;25.60;15.80;;;18.40;99.90;;;;;;5084100;28;20093;-73
2023/01/03 10:06:42;;;;;;;20.52;13.60;;;18.30;99.90;;;;;;5089511;28;20044;-73
2023/01/03 10:09:26;;;;;;;19.20;13.52;;;18.30;99.90;;;;;;5083706;28;20135;-73
2023/01/03 10:12:22;;;;;;;24.00;17.73;;;18.30;99.90;;;;;;5081543;28;20047;-75
2023/01/03 10:15:37;;;;;;;23.55;16.08;;;18.30;99.90;;;;;;5084066;28;20066;-73
2023/01/03 10:18:30;;;;;;;19.60;13.48;;;18.40;99.90;;;;;;5070051;28;20041;-73
2023/01/03 10:21:29;;;;;;;27.27;14.32;;;18.70;99.90;;;;;;5091182;28;20055;-73
2023/01/03 10:23:57;;;;;;;20.58;13.57;;;18.70;99.90;;;;;;5054292;28;20150;-73
2023/01/03 10:26:26;;;;;;;24.30;13.13;;;18.40;99.90;;;;;;5088978;28;20048;-73
2023/01/03 10:28:59;;;;;;;16.77;11.90;;;18.10;99.90;;;;;;5073270;28;20143;-73
2023/01/03 10:31:32;;;;;;;17.20;12.75;;;17.70;99.90;;;;;;5068139;28;20166;-73
2023/01/03 10:34:00;;;;;;;17.75;11.02;;;17.40;99.90;;;;;;5070012;28;20048;-71
2023/01/03 10:36:28;;;;;;;17.02;10.98;;;17.40;99.90;;;;;;5083113;28;20122;-72
2023/01/03 10:39:07;;;;;;;16.20;12.30;;;17.50;99.90;;;;;;5090347;28;20040;-72
2023/01/03 10:41:51;;;;;;;14.35;9.73;;;17.60;99.90;;;;;;5090722;28;20088;-74
2023/01/03 10:44:27;;;;;;;14.15;9.27;;;17.60;99.90;;;;;;5090329;28;20147;-72
2023/01/03 10:46:57;;;;;;;11.52;8.32;;;17.40;99.90;;;;;;5072159;28;20051;-72
2023/01/03 10:49:29;;;;;;;14.10;8.70;;;17.30;99.90;;;;;;5075341;28;20067;-72
2023/01/03 10:52:13;;;;;;;14.55;9.23;;;17.40;99.90;;;;;;5054532;28;20044;-73
2023/01/03 10:54:47;;;;;;;14.75;10.15;;;17.40;99.90;;;;;;5085924;28;20066;-72
2023/01/03 10:57:47;;;;;;;15.88;11.05;;;17.30;99.90;;;;;;5089683;28;20133;-73
2023/01/03 11:00:26;;;;;;;13.70;9.75;;;17.10;99.90;;;;;;5088045;28;20499;-73
2023/01/03 11:03:01;;;;;;;15.85;10.45;;;17.00;99.90;;;;;;5089896;28;20781;-72
2023/01/03 11:05:28;;;;;;;17.95;10.68;;;16.90;99.90;;;;;;5071874;28;20060;-72
2023/01/03 11:07:59;;;;;;;15.00;10.00;;;16.80;99.90;;;;;;5090060;28;20090;-72
2023/01/03 11:10:51;;;;;;;11.93;8.60;;;16.60;99.90;;;;;;5089949;28;20575;-73
2023/01/03 11:13:37;;;;;;;13.88;8.63;;;16.50;99.90;;;;;;5070925;28;20044;-72
2023/01/03 11:16:17;;;;;;;13.32;9.93;;;16.30;99.90;;;;;;5071442;28;20091;-73
2023/01/03 11:18:59;;;;;;;13.77;8.32;;;16.10;99.90;;;;;;5086218;28;20036;-72
2023/01/03 11:21:52;;;;;;;13.40;9.50;;;16.00;99.90;;;;;;5086505;28;20036;-73
2023/01/03 11:25:13;;;;;;;17.90;10.18;;;15.90;99.90;;;;;;5089526;28;20058;-74
2023/01/03 11:28:19;;;;;;;15.88;10.63;;;16.10;99.90;;;;;;5006585;28;20050;-73
2023/01/03 11:30:49;;;;;;;15.32;10.02;;;16.40;99.90;;;;;;5071398;28;20571;-74
2023/01/03 11:33:55;;;;;;;12.50;8.55;;;16.60;99.90;;;;;;5088112;28;20071;-73
2023/01/03 11:36:47;;;;;;;10.13;6.70;;;16.60;99.90;;;;;;5088859;28;20044;-73
2023/01/03 11:39:27;;;;;;;12.05;8.43;;;16.60;99.90;;;;;;5088124;28;20039;-73
2023/01/03 11:42:19;;;;;;;12.95;8.70;;;16.70;99.90;;;;;;5088161;28;20058;-72
2023/01/03 11:45:15;;;;;;;17.05;9.18;;;16.70;99.90;;;;;;5089525;28;20120;-73
2023/01/03 11:47:48;;;;;;;15.63;9.85;;;16.90;99.90;;;;;;5074626;28;20047;-73
2023/01/03 11:50:25;;;;;;;12.68;7.55;;;17.20;99.90;;;;;;5087631;28;20040;-73
2023/01/03 11:53:02;;;;;;;14.55;8.60;;;17.40;99.90;;;;;;5087435;28;20044;-73
2023/01/03 11:55:48;;;;;;;10.07;7.38;;;17.40;99.90;;;;;;5050755;28;20049;-73
2023/01/03 11:58:38;;;;;;;12.93;9.02;;;17.30;99.90;;;;;;5078554;28;20044;-73
2023/01/03 12:01:33;;;;;;;14.38;8.30;;;17.30;99.90;;;;;;5087209;28;20065;-72
2023/01/03 12:04:10;;;;;;;10.77;7.68;;;17.50;99.90;;;;;;5068656;28;20052;-73
2023/01/03 12:07:02;;;;;;;15.05;9.38;;;17.50;99.90;;;;;;5067079;28;20368;-73
2023/01/03 12:10:07;;;;;;;57.80;14.32;;;17.40;99.90;;;;;;5067907;28;20040;-72
2023/01/03 12:13:02;;;;;;;14.75;8.98;;;17.30;99.90;;;;;;5087702;28;20059;-72
2023/01/03 12:15:45;;;;;;;8.40;6.47;;;17.30;99.90;;;;;;5053984;28;20417;-72
2023/01/03 12:18:19;;;;;;;12.20;7.22;;;17.30;99.90;;;;;;5088786;28;20556;-73
2023/01/03 12:20:54;;;;;;;12.55;7.32;;;17.00;99.90;;;;;;5088818;28;20083;-72
2023/01/03 12:23:32;;;;;;;9.90;7.30;;;16.90;99.90;;;;;;5084529;28;20577;-73
2023/01/03 12:26:04;;;;;;;10.38;7.57;;;16.90;99.90;;;;;;5070105;28;20055;-72
2023/01/03 12:28:39;;;;;;;8.45;6.43;;;16.70;99.90;;;;;;5087621;28;20048;-73
2023/01/03 12:31:39;;;;;;;11.63;7.73;;;16.60;99.90;;;;;;5088826;28;20066;-73
2023/01/03 12:34:29;;;;;;;11.27;8.70;;;16.50;99.90;;;;;;5064744;28;20513;-72
2023/01/03 12:37:08;;;;;;;11.95;7.45;;;16.40;99.90;;;;;;5067109;28;20044;-73
2023/01/03 12:40:00;;;;;;;11.23;7.30;;;16.30;99.90;;;;;;5070294;28;20040;-73
2023/01/03 12:42:44;;;;;;;12.15;8.00;;;16.30;99.90;;;;;;5094615;28;20079;-72
2023/01/03 12:45:24;;;;;;;8.95;7.10;;;16.40;99.90;;;;;;5087011;28;20583;-72
2023/01/03 12:48:12;;;;;;;10.25;6.25;;;16.40;99.90;;;;;;5087764;28;20050;-73
2023/01/03 12:50:49;;;;;;;7.65;5.07;;;16.60;99.90;;;;;;5076364;28;20054;-75
2023/01/03 12:53:28;;;;;;;8.13;5.50;;;16.60;99.90;;;;;;5079709;28;20052;-73
2023/01/03 12:56:33;;;;;;;7.50;5.13;;;16.70;99.90;;;;;;5076383;28;20565;-72
2023/01/03 12:59:35;;;;;;;7.22;5.32;;;16.70;99.90;;;;;;5088196;28;20130;-72
2023/01/03 13:02:25;;;;;;;9.15;6.00;;;16.70;99.90;;;;;;5069957;28;20836;-73
2023/01/03 13:05:01;;;;;;;10.18;6.90;;;16.50;99.90;;;;;;5091126;28;20567;-73
2023/01/03 13:07:30;;;;;;;9.23;6.78;;;16.40;99.90;;;;;;5092377;28;20048;-73
2023/01/03 13:10:06;;;;;;;8.52;5.28;;;16.40;99.90;;;;;;5073754;28;20496;-75
2023/01/03 13:12:38;;;;;;;8.90;6.10;;;16.30;99.90;;;;;;5071658;28;20040;-74
2023/01/03 13:15:27;;;;;;;8.40;5.82;;;16.30;99.90;;;;;;5086733;28;20765;-72
2023/01/03 13:18:22;;;;;;;10.32;6.63;;;16.30;99.90;;;;;;5042208;28;20497;-73
2023/01/03 13:20:53;;;;;;;8.02;5.65;;;16.20;99.90;;;;;;5070199;28;20136;-73
2023/01/03 13:23:52;;;;;;;8.55;5.90;;;16.10;99.90;;;;;;5057601;28;20120;-72
2023/01/03 13:26:25;;;;;;;7.82;5.18;;;16.10;99.90;;;;;;5091449;28;20048;-72
2023/01/03 13:29:31;;;;;;;9.10;6.30;;;16.00;99.90;;;;;;5082087;28;20032;-72
2023/01/03 13:32:15;;;;;;;8.95;5.70;;;16.00;99.90;;;;;;5071979;28;20073;-75
2023/01/03 13:34:43;;;;;;;8.70;7.00;;;16.00;99.90;;;;;;5073265;28;20372;-72
2023/01/03 13:37:15;;;;;;;8.13;6.43;;;16.00;99.90;;;;;;5082768;28;20127;-72
2023/01/03 13:39:53;;;;;;;9.30;6.88;;;15.90;99.90;;;;;;5079098;28;20036;-72
2023/01/03 13:42:28;;;;;;;10.30;5.97;;;15.90;99.90;;;;;;5077230;28;20036;-72
2023/01/03 13:45:28;;;;;;;6.13;4.30;;;15.80;99.90;;;;;;5080632;28;20044;-72
2023/01/03 13:47:57;;;;;;;7.53;4.30;;;15.80;99.90;;;;;;5017245;28;20044;-73
2023/01/03 13:50:34;;;;;;;7.28;4.63;;;15.70;99.90;;;;;;5090642;28;20062;-73
2023/01/03 13:53:02;;;;;;;5.05;4.03;;;15.70;99.90;;;;;;5090315;28;20120;-74
2023/01/03 13:56:00;;;;;;;5.50;4.00;;;15.60;99.90;;;;;;5090991;28;20105;-73
2023/01/03 13:58:30;;;;;;;;;;;15.50;99.90;;;;;;5078175;28;20040;-73
2023/01/03 14:01:04;;;;;;;5.85;3.78;;;15.40;99.90;;;;;;5057109;28;19973;-73
2023/01/03 14:04:00;;;;;;;11.25;4.82;;;15.30;99.90;;;;;;5084021;28;20063;-75
2023/01/03 14:07:08;;;;;;;8.25;4.10;;;15.20;99.90;;;;;;5072361;28;20052;-74
2023/01/03 14:09:57;;;;;;;10.18;4.68;;;15.20;99.90;;;;;;5086740;28;20049;-74
2023/01/03 14:12:25;;;;;;;6.97;4.60;;;15.20;99.90;;;;;;5075921;28;20051;-73
2023/01/03 14:14:55;;;;;;;6.65;4.75;;;15.10;99.90;;;;;;5089697;28;20048;-74